Pettus, Texas
Current Conditions -  °F | °C
As of 4:15 AM on Sunday 25 Jan 2015 (Local Time) from KBEA Reporting Station
Clear Clear  
Wind Chill: 47°   Ceiling: Unl
Heat Index: 47°   Visibility: 10mi
Dew Point: 37°   Wind: 3mph
Humidity: 69%   Direction: 250°WSW
Pressure: 30.08"   Gusts: NA
Location:  28.62°N, 97.8°W
Report Text: KBEA 251015Z AUTO 25003KT 10SM CLR 08/03 A3008 RMK AO2 T00830030
Loading
Personal Weather Stations






























Interactive Weather Map New forecast layout! Learn more

10-Day Weather Forecast

Advertisements
Track Severe Weather on mobile